createdAt,value
2018-08-10T00:01:18.700Z,5.03
2018-08-10T00:03:46.948Z,5.00
2018-08-10T00:06:15.247Z,7.33
2018-08-10T00:08:43.546Z,4.13
2018-08-10T00:11:11.917Z,7.60
2018-08-10T00:13:40.425Z,7.83
2018-08-10T00:16:08.734Z,8.27
2018-08-10T00:18:37.082Z,7.80
2018-08-10T00:21:05.377Z,5.40
2018-08-10T00:23:33.632Z,5.67
2018-08-10T00:26:02.812Z,4.93
2018-08-10T00:28:31.195Z,5.27
2018-08-10T00:30:59.521Z,4.42
2018-08-10T00:33:27.807Z,5.97
2018-08-10T00:35:56.073Z,8.70
2018-08-10T00:38:24.368Z,6.90
2018-08-10T00:40:52.786Z,4.50
2018-08-10T00:43:21.064Z,7.47
2018-08-10T00:45:49.424Z,6.07
2018-08-10T00:48:17.716Z,8.13
2018-08-10T00:50:45.993Z,8.37
2018-08-10T00:53:14.340Z,5.63
2018-08-10T00:55:42.622Z,7.70
2018-08-10T00:58:10.905Z,5.97
2018-08-10T01:00:39.195Z,6.07
2018-08-10T01:03:07.506Z,8.17
2018-08-10T01:05:35.771Z,5.93
2018-08-10T01:08:04.485Z,5.72
2018-08-10T01:10:32.793Z,6.60
2018-08-10T01:13:01.094Z,7.17
2018-08-10T01:15:29.367Z,7.30
2018-08-10T01:17:57.651Z,8.85
2018-08-10T01:20:25.948Z,8.50
2018-08-10T01:22:59.398Z,5.70
2018-08-10T01:25:28.118Z,7.40
2018-08-10T01:28:02.418Z,7.03
2018-08-10T01:30:31.771Z,5.20
2018-08-10T01:33:00.314Z,8.63
2018-08-10T01:35:29.216Z,5.27
2018-08-10T01:37:58.567Z,4.33
2018-08-10T01:40:26.877Z,6.03
2018-08-10T01:42:55.175Z,8.87
2018-08-10T01:45:23.483Z,4.87
2018-08-10T01:47:51.795Z,5.33
2018-08-10T01:50:20.121Z,3.70
2018-08-10T01:52:48.414Z,7.27
2018-08-10T01:55:16.723Z,5.73
2018-08-10T01:57:45.016Z,7.77
2018-08-10T02:00:13.356Z,6.13
2018-08-10T02:02:41.601Z,4.93
2018-08-10T02:05:11.803Z,6.17
2018-08-10T02:07:40.685Z,3.33
2018-08-10T02:10:13.130Z,5.63
2018-08-10T02:12:42.291Z,4.23
2018-08-10T02:15:14.036Z,5.43
2018-08-10T02:17:42.315Z,8.27
2018-08-10T02:20:12.559Z,6.93
2018-08-10T02:22:40.850Z,8.60
2018-08-10T02:25:10.783Z,7.57
2018-08-10T02:27:39.231Z,7.17
2018-08-10T02:30:09.507Z,8.30
2018-08-10T02:32:38.259Z,6.87
2018-08-10T02:35:06.882Z,7.33
2018-08-10T02:37:35.186Z,6.63
2018-08-10T02:40:03.694Z,9.90
2018-08-10T02:42:31.972Z,8.93
2018-08-10T02:45:00.264Z,8.03
2018-08-10T02:47:28.527Z,9.33
2018-08-10T02:49:56.993Z,9.20
2018-08-10T02:52:25.328Z,9.70
2018-08-10T02:54:54.096Z,9.43
2018-08-10T02:57:22.733Z,11.43
2018-08-10T02:59:50.987Z,11.13
2018-08-10T03:02:19.333Z,9.17
2018-08-10T03:04:48.189Z,9.77
2018-08-10T03:07:16.479Z,9.17
2018-08-10T03:09:44.767Z,9.20
2018-08-10T03:12:13.692Z,9.17
2018-08-10T03:14:42.478Z,10.53
2018-08-10T03:17:11.190Z,9.80
2018-08-10T03:19:39.565Z,8.30
2018-08-10T03:22:08.108Z,9.80
2018-08-10T03:24:36.756Z,10.23
2018-08-10T03:27:05.405Z,10.90
2018-08-10T03:29:33.722Z,8.70
2018-08-10T03:32:02.028Z,10.17
2018-08-10T03:34:30.316Z,8.07
2018-08-10T03:36:58.597Z,9.53
2018-08-10T03:39:26.904Z,9.23
2018-08-10T03:41:55.210Z,7.50
2018-08-10T03:44:23.534Z,9.17
2018-08-10T03:46:51.824Z,7.97
2018-08-10T03:49:20.131Z,12.28
2018-08-10T03:51:48.408Z,9.30
2018-08-10T03:54:16.723Z,10.87
2018-08-10T03:56:45.024Z,7.63
2018-08-10T03:59:13.301Z,7.25
2018-08-10T04:01:41.576Z,9.87
2018-08-10T04:04:09.942Z,7.97
2018-08-10T04:06:38.243Z,8.00
2018-08-10T04:09:08.666Z,9.17
2018-08-10T04:11:37.472Z,8.30
2018-08-10T04:14:05.839Z,10.20
2018-08-10T04:16:34.363Z,8.90
2018-08-10T04:19:02.743Z,8.20
2018-08-10T04:21:31.160Z,9.57
2018-08-10T04:23:59.884Z,10.13
2018-08-10T04:26:28.236Z,9.53
2018-08-10T04:28:56.654Z,11.63
2018-08-10T04:31:24.971Z,9.05
2018-08-10T04:33:53.289Z,10.77
2018-08-10T04:36:21.605Z,9.97
2018-08-10T04:38:49.912Z,9.63
2018-08-10T04:41:18.267Z,11.30
2018-08-10T04:43:47.398Z,10.63
2018-08-10T04:46:15.744Z,10.83
2018-08-10T04:48:44.080Z,9.53
2018-08-10T04:51:12.976Z,8.78
2018-08-10T04:53:41.417Z,11.00
2018-08-10T04:56:09.877Z,13.70
2018-08-10T04:58:38.288Z,11.10
2018-08-10T05:01:06.707Z,9.50
2018-08-10T05:03:35.114Z,8.60
2018-08-10T05:06:03.443Z,9.40
2018-08-10T05:08:31.760Z,10.53
2018-08-10T05:11:00.094Z,12.00
2018-08-10T05:13:28.457Z,11.83
2018-08-10T05:15:56.801Z,11.10
2018-08-10T05:18:25.215Z,14.10
2018-08-10T05:20:53.547Z,13.75
2018-08-10T05:23:21.891Z,12.77
2018-08-10T05:25:50.324Z,10.93
2018-08-10T05:28:18.676Z,10.72
2018-08-10T05:30:46.989Z,9.47
2018-08-10T05:33:15.393Z,11.90
2018-08-10T05:35:43.667Z,9.73
2018-08-10T05:38:11.961Z,11.83
2018-08-10T05:40:40.329Z,9.17
2018-08-10T05:43:09.008Z,12.00
2018-08-10T05:45:37.952Z,10.47
2018-08-10T05:48:07.319Z,10.43
2018-08-10T05:50:35.660Z,8.20
2018-08-10T05:57:58.567Z,11.33
2018-08-10T06:00:26.902Z,8.17
2018-08-10T06:02:55.322Z,10.97
2018-08-10T06:05:24.100Z,8.30
2018-08-10T06:07:52.476Z,10.10
2018-08-10T06:10:21.469Z,9.80
2018-08-10T06:12:49.780Z,10.10
2018-08-10T06:15:18.183Z,7.72
2018-08-10T06:17:46.513Z,10.23
2018-08-10T06:20:14.849Z,11.30
2018-08-10T06:22:43.175Z,9.70
2018-08-10T06:25:11.688Z,8.37
2018-08-10T06:27:39.974Z,9.33
2018-08-10T06:30:09.826Z,11.17
2018-08-10T06:32:38.238Z,15.60
2018-08-10T06:35:07.889Z,7.95
2018-08-10T06:37:36.329Z,12.37
2018-08-10T06:40:05.315Z,10.13
2018-08-10T06:42:33.701Z,10.80
2018-08-10T06:45:02.147Z,12.43
2018-08-10T06:47:30.400Z,11.13
2018-08-10T06:49:58.718Z,11.70
2018-08-10T06:52:26.992Z,12.60
2018-08-10T06:54:55.277Z,9.33
2018-08-10T06:57:23.635Z,8.43
2018-08-10T06:59:51.958Z,9.77
2018-08-10T07:02:20.289Z,11.77
2018-08-10T07:04:49.087Z,12.00
2018-08-10T07:07:17.497Z,8.70
2018-08-10T07:09:45.757Z,11.43
2018-08-10T07:12:14.359Z,10.40
2018-08-10T07:14:42.648Z,8.50
2018-08-10T07:17:10.957Z,11.53
2018-08-10T07:19:39.288Z,6.03
2018-08-10T07:22:08.429Z,13.03
2018-08-10T07:24:36.759Z,10.08
2018-08-10T07:27:05.126Z,8.53
2018-08-10T07:29:33.404Z,8.97
2018-08-10T07:32:01.757Z,11.70
2018-08-10T07:34:30.672Z,8.87
2018-08-10T07:36:59.003Z,7.77
2018-08-10T07:39:27.339Z,8.77
2018-08-10T07:41:55.641Z,11.10
2018-08-10T07:44:24.080Z,8.60
2018-08-10T07:46:52.401Z,9.57
2018-08-10T07:49:20.730Z,11.97
2018-08-10T07:51:49.054Z,8.20
2018-08-10T07:54:17.413Z,12.57
2018-08-10T07:56:45.794Z,13.50
2018-08-10T07:59:14.154Z,9.37
2018-08-10T08:01:42.459Z,7.30
2018-08-10T08:04:11.112Z,11.17
2018-08-10T08:06:39.462Z,9.83
2018-08-10T08:09:09.836Z,11.87
2018-08-10T08:11:38.250Z,7.63
2018-08-10T08:14:06.840Z,6.10
2018-08-10T08:16:35.429Z,7.70
2018-08-10T08:23:58.979Z,11.03
2018-08-10T08:26:27.441Z,6.97
2018-08-10T08:28:55.841Z,10.97
2018-08-10T08:31:24.278Z,8.25
2018-08-10T08:34:00.805Z,10.17
2018-08-10T08:36:29.105Z,9.13
2018-08-10T08:41:09.920Z,8.93
2018-08-10T08:44:51.356Z,5.30
2018-08-10T08:47:19.719Z,7.20
2018-08-10T08:49:48.148Z,5.00
2018-08-10T08:52:16.578Z,8.40
2018-08-10T08:54:56.349Z,4.57
2018-08-10T08:57:24.705Z,4.92
2018-08-10T08:59:53.055Z,6.17
2018-08-10T09:02:21.432Z,7.10
2018-08-10T09:05:00.112Z,4.67
2018-08-10T09:07:29.231Z,5.47
2018-08-10T09:09:57.984Z,4.03
2018-08-10T09:12:26.432Z,5.90
2018-08-10T09:14:58.116Z,5.40
2018-08-10T09:17:26.547Z,6.30
2018-08-10T09:19:54.806Z,5.60
2018-08-10T09:22:24.096Z,5.87
2018-08-10T09:24:52.400Z,7.43
2018-08-10T09:27:20.818Z,7.44
2018-08-10T09:29:49.159Z,6.20
2018-08-10T09:32:17.491Z,7.07
2018-08-10T09:34:45.815Z,5.77
2018-08-10T09:37:14.135Z,5.43
2018-08-10T09:39:42.490Z,4.00
2018-08-10T09:42:10.862Z,5.67
2018-08-10T09:44:39.198Z,5.90
2018-08-10T09:47:08.282Z,4.80
2018-08-10T09:49:40.004Z,3.57
2018-08-10T09:52:08.548Z,7.83
2018-08-10T09:55:25.150Z,5.03
2018-08-10T09:57:56.725Z,5.83
2018-08-10T10:00:30.309Z,3.73
2018-08-10T10:03:04.041Z,8.93
2018-08-10T10:05:32.435Z,2.20
2018-08-10T10:08:00.772Z,4.90
2018-08-10T10:10:29.167Z,5.50
2018-08-10T10:12:58.009Z,3.73
2018-08-10T10:15:26.430Z,4.13
2018-08-10T10:17:54.817Z,5.83
2018-08-10T10:20:23.245Z,2.58
2018-08-10T10:22:51.738Z,2.17
2018-08-10T10:25:20.240Z,3.73
2018-08-10T10:27:48.599Z,3.27
2018-08-10T10:30:16.972Z,2.57
2018-08-10T10:32:45.415Z,4.00
2018-08-10T10:35:13.630Z,3.53
2018-08-10T10:37:41.952Z,3.00
2018-08-10T10:40:10.975Z,5.33
2018-08-10T10:42:39.333Z,3.07
2018-08-10T10:45:10.521Z,4.00
2018-08-10T10:47:38.888Z,3.83
2018-08-10T10:50:08.481Z,3.47
2018-08-10T10:52:37.321Z,4.73
2018-08-10T10:55:05.865Z,2.43
2018-08-10T10:57:34.191Z,3.63
2018-08-10T11:00:02.546Z,3.87
2018-08-10T11:02:30.904Z,3.47
2018-08-10T11:04:59.242Z,4.03
2018-08-10T11:07:27.533Z,4.60
2018-08-10T11:09:55.907Z,2.23
2018-08-10T11:12:24.248Z,3.87
2018-08-10T11:14:52.598Z,3.47
2018-08-10T11:17:21.838Z,2.17
2018-08-10T11:19:50.154Z,3.43
2018-08-10T11:22:18.501Z,3.80
2018-08-10T11:24:46.838Z,4.43
2018-08-10T11:27:15.147Z,3.83
2018-08-10T11:29:43.523Z,3.87
2018-08-10T11:32:12.015Z,3.33
2018-08-10T11:34:40.339Z,5.57
2018-08-10T11:37:09.371Z,3.73
2018-08-10T11:39:37.690Z,2.47
2018-08-10T11:42:06.136Z,4.33
2018-08-10T11:44:34.393Z,3.17
2018-08-10T11:47:02.693Z,5.63
2018-08-10T11:49:31.023Z,4.70
2018-08-10T11:51:59.332Z,3.23
2018-08-10T11:54:27.645Z,4.40
2018-08-10T11:56:55.970Z,3.03
2018-08-10T11:59:24.403Z,4.57
2018-08-10T12:01:52.766Z,3.57
2018-08-10T12:04:21.109Z,2.80
2018-08-10T12:06:49.411Z,5.07
2018-08-10T12:09:17.802Z,2.75
2018-08-10T12:11:46.268Z,5.17
2018-08-10T12:14:14.614Z,2.62
2018-08-10T12:16:42.928Z,4.20
2018-08-10T12:19:12.401Z,5.37
2018-08-10T12:21:40.631Z,3.17
2018-08-10T12:24:09.528Z,5.80
2018-08-10T12:26:37.835Z,3.27
2018-08-10T12:29:06.348Z,3.07
2018-08-10T12:31:34.688Z,2.80
2018-08-10T12:34:02.996Z,4.73
2018-08-10T12:36:31.319Z,4.13
2018-08-10T12:38:59.731Z,5.40
2018-08-10T12:41:28.093Z,3.17
2018-08-10T12:43:56.481Z,3.70
2018-08-10T12:46:24.812Z,2.27
2018-08-10T12:48:53.337Z,4.97
2018-08-10T12:51:21.700Z,4.00
2018-08-10T12:53:50.016Z,2.17
2018-08-10T12:56:18.451Z,4.42
2018-08-10T12:58:46.837Z,2.57
2018-08-10T13:01:15.171Z,3.52
2018-08-10T13:03:43.613Z,2.37
2018-08-10T13:06:11.933Z,1.73
2018-08-10T13:08:40.379Z,2.03
2018-08-10T13:11:08.710Z,3.20
2018-08-10T13:13:37.022Z,2.97
2018-08-10T13:16:05.452Z,2.77
2018-08-10T13:18:33.955Z,3.20
2018-08-10T13:21:02.271Z,3.70
2018-08-10T13:23:30.664Z,2.27
2018-08-10T13:25:59.098Z,3.15
2018-08-10T13:28:27.423Z,3.10
2018-08-10T13:30:55.768Z,2.83
2018-08-10T13:33:24.204Z,3.33
2018-08-10T13:35:52.665Z,2.42
2018-08-10T13:38:21.011Z,3.47
2018-08-10T13:40:49.454Z,2.80
2018-08-10T13:43:17.857Z,3.27
2018-08-10T13:45:47.063Z,2.80
2018-08-10T13:48:17.146Z,2.60
2018-08-10T13:50:45.482Z,2.13
2018-08-10T13:53:13.879Z,2.37
2018-08-10T13:55:42.226Z,2.80
2018-08-10T13:58:10.522Z,4.28
2018-08-10T14:00:38.877Z,2.33
2018-08-10T14:03:07.271Z,2.53
2018-08-10T14:05:35.619Z,3.27
2018-08-10T14:08:04.107Z,2.40
2018-08-10T14:10:32.500Z,1.83
2018-08-10T14:13:00.854Z,2.43
2018-08-10T14:15:29.204Z,2.50
2018-08-10T14:17:57.553Z,1.70
2018-08-10T14:20:25.909Z,1.33
2018-08-10T14:22:54.349Z,2.07
2018-08-10T14:25:22.848Z,2.87
2018-08-10T14:27:51.250Z,2.97
2018-08-10T14:30:19.844Z,1.93
2018-08-10T14:32:48.144Z,4.87
2018-08-10T14:35:16.509Z,3.05
2018-08-10T14:37:44.869Z,2.72
2018-08-10T14:40:13.989Z,4.97
2018-08-10T14:42:42.407Z,1.97
2018-08-10T14:45:13.846Z,2.10
2018-08-10T14:47:42.217Z,2.10
2018-08-10T14:50:12.281Z,2.13
2018-08-10T14:52:40.838Z,1.60
2018-08-10T14:55:10.996Z,5.03
2018-08-10T14:57:39.426Z,2.50
2018-08-10T15:00:11.155Z,4.37
2018-08-10T15:02:39.741Z,3.72
2018-08-10T15:05:08.482Z,5.10
2018-08-10T15:07:36.880Z,1.40
2018-08-10T15:10:06.176Z,2.93
2018-08-10T15:12:34.807Z,3.53
2018-08-10T15:15:02.927Z,1.63
2018-08-10T15:17:31.305Z,4.87
2018-08-10T15:19:59.675Z,1.20
2018-08-10T15:22:28.065Z,2.20
2018-08-10T15:24:56.594Z,2.97
2018-08-10T15:27:25.404Z,3.57
2018-08-10T15:29:53.806Z,2.60
2018-08-10T15:32:22.213Z,4.25
2018-08-10T15:34:50.616Z,1.80
2018-08-10T15:37:18.945Z,1.87
2018-08-10T15:39:47.399Z,3.07
2018-08-10T15:42:15.853Z,1.77
2018-08-10T15:44:44.299Z,2.30
2018-08-10T15:47:12.656Z,2.63
2018-08-10T15:49:41.021Z,3.03
2018-08-10T15:52:09.456Z,2.60
2018-08-10T15:54:37.752Z,2.17
2018-08-10T15:57:06.145Z,2.70
2018-08-10T15:59:34.498Z,4.07
2018-08-10T16:02:02.899Z,2.07
2018-08-10T16:04:31.320Z,5.70
2018-08-10T16:06:59.707Z,3.57
2018-08-10T16:09:28.074Z,6.23
2018-08-10T16:11:56.363Z,3.27
2018-08-10T16:14:24.720Z,2.13
2018-08-10T16:16:53.117Z,2.23
2018-08-10T16:19:21.497Z,1.47
2018-08-10T16:21:50.835Z,3.50
2018-08-10T16:24:19.186Z,2.02
2018-08-10T16:26:47.526Z,3.87
2018-08-10T16:29:15.856Z,3.07
2018-08-10T16:31:44.276Z,2.53
2018-08-10T16:34:12.639Z,3.75
2018-08-10T16:36:41.025Z,4.33
2018-08-10T16:39:11.082Z,2.47
2018-08-10T16:41:40.241Z,4.27
2018-08-10T16:44:08.577Z,2.53
2018-08-10T16:46:36.876Z,2.52
2018-08-10T16:49:05.417Z,3.57
2018-08-10T16:51:33.908Z,2.80
2018-08-10T16:54:02.281Z,1.70
2018-08-10T16:56:30.679Z,3.20
2018-08-10T16:58:59.052Z,3.27
2018-08-10T17:01:27.421Z,3.33
2018-08-10T17:03:56.187Z,4.87
2018-08-10T17:06:24.516Z,3.97
2018-08-10T17:08:53.596Z,2.97
2018-08-10T17:11:22.794Z,3.43
2018-08-10T17:13:51.144Z,3.23
2018-08-10T17:16:20.324Z,3.60
2018-08-10T17:18:48.704Z,3.43
2018-08-10T17:21:17.150Z,3.63
2018-08-10T17:23:45.523Z,3.10
2018-08-10T17:26:14.067Z,5.40
2018-08-10T17:28:42.505Z,4.33
2018-08-10T17:31:10.871Z,2.70
2018-08-10T17:33:39.205Z,2.37
2018-08-10T17:36:07.679Z,4.72
2018-08-10T17:38:36.193Z,3.00
2018-08-10T17:41:04.738Z,5.13
2018-08-10T17:43:33.187Z,1.93
2018-08-10T17:46:01.545Z,2.63
2018-08-10T17:48:29.926Z,4.33
2018-08-10T17:50:58.288Z,2.33
2018-08-10T17:53:26.877Z,3.73
2018-08-10T17:55:55.257Z,3.43
2018-08-10T17:58:23.761Z,2.63
2018-08-10T18:00:52.785Z,4.33
2018-08-10T18:03:21.335Z,3.12
2018-08-10T18:05:49.678Z,4.45
2018-08-10T18:08:18.168Z,1.90
2018-08-10T18:10:46.548Z,4.63
2018-08-10T18:13:15.981Z,2.37
2018-08-10T18:15:45.348Z,3.77
2018-08-10T18:18:13.941Z,3.93
2018-08-10T18:20:42.639Z,2.90
2018-08-10T18:23:11.019Z,4.40
2018-08-10T18:25:40.561Z,5.13
2018-08-10T18:28:09.190Z,4.03
2018-08-10T18:30:37.758Z,2.10
2018-08-10T18:33:06.490Z,3.00
2018-08-10T18:35:35.304Z,2.95
2018-08-10T18:38:03.945Z,7.83
2018-08-10T18:40:32.303Z,3.73
2018-08-10T18:43:01.111Z,4.23
2018-08-10T18:45:30.550Z,3.27
2018-08-10T18:47:59.070Z,4.13
2018-08-10T18:50:27.667Z,3.63
2018-08-10T18:52:56.030Z,2.27
2018-08-10T18:55:24.702Z,6.47
2018-08-10T18:57:53.523Z,3.63
2018-08-10T19:00:23.740Z,1.95
2018-08-10T19:02:52.382Z,4.10
2018-08-10T19:05:20.996Z,2.85
2018-08-10T19:07:49.795Z,1.77
2018-08-10T19:10:21.972Z,4.73
2018-08-10T19:12:50.359Z,3.90
2018-08-10T19:15:18.758Z,4.22
2018-08-10T19:17:47.616Z,4.07
2018-08-10T19:20:16.288Z,1.77
2018-08-10T19:22:45.201Z,5.57
2018-08-10T19:25:14.470Z,3.87
2018-08-10T19:27:42.729Z,2.37
2018-08-10T19:30:14.584Z,3.10
2018-08-10T19:32:44.069Z,4.00
2018-08-10T19:35:12.609Z,3.20
2018-08-10T19:37:41.298Z,2.60
2018-08-10T19:40:12.097Z,2.23
2018-08-10T19:42:40.615Z,2.10
2018-08-10T19:45:10.083Z,4.93
2018-08-10T19:47:38.842Z,3.90
2018-08-10T19:50:08.313Z,2.13
2018-08-10T19:52:36.773Z,1.53
2018-08-10T19:55:06.823Z,2.47
2018-08-10T19:57:35.424Z,3.63
2018-08-10T20:00:06.253Z,3.37
2018-08-10T20:02:34.859Z,2.50
2018-08-10T20:05:03.426Z,4.33
2018-08-10T20:07:32.026Z,4.73
2018-08-10T20:10:00.521Z,4.50
2018-08-10T20:12:29.107Z,1.53
2018-08-10T20:14:57.527Z,3.73
2018-08-10T20:17:26.116Z,3.55
2018-08-10T20:19:54.524Z,4.40
2018-08-10T20:22:23.003Z,1.98
2018-08-10T20:24:51.632Z,4.07
2018-08-10T20:27:20.026Z,2.90
2018-08-10T20:29:48.308Z,4.13
2018-08-10T20:32:16.648Z,3.60
2018-08-10T20:34:44.977Z,4.10
2018-08-10T20:37:13.619Z,2.17
2018-08-10T20:39:41.928Z,3.23
2018-08-10T20:42:10.329Z,2.40
2018-08-10T20:44:38.737Z,2.27
2018-08-10T20:47:07.040Z,3.77
2018-08-10T20:49:35.403Z,2.10
2018-08-10T20:52:03.803Z,5.03
2018-08-10T20:54:32.205Z,3.73
2018-08-10T20:57:00.539Z,2.93
2018-08-10T20:59:28.831Z,3.53
2018-08-10T21:01:57.113Z,2.10
2018-08-10T21:04:25.444Z,2.50
2018-08-10T21:06:53.716Z,2.90
2018-08-10T21:09:22.049Z,5.33
2018-08-10T21:11:50.372Z,3.57
2018-08-10T21:14:18.682Z,4.77
2018-08-10T21:16:47.023Z,5.63
2018-08-10T21:19:15.474Z,3.52
2018-08-10T21:21:43.725Z,2.63
2018-08-10T21:24:12.060Z,2.97
2018-08-10T21:26:40.517Z,3.63
2018-08-10T21:29:08.753Z,3.10
2018-08-10T21:31:37.064Z,2.87
2018-08-10T21:34:05.423Z,2.20
2018-08-10T21:36:33.706Z,2.87
2018-08-10T21:39:01.973Z,2.67
2018-08-10T21:41:30.321Z,5.33
2018-08-10T21:43:58.624Z,3.47
2018-08-10T21:46:26.921Z,3.07
2018-08-10T21:48:55.264Z,2.57
2018-08-10T21:51:23.611Z,3.30
2018-08-10T21:53:51.930Z,4.93
2018-08-10T21:56:20.818Z,4.25
2018-08-10T21:58:49.147Z,2.73
2018-08-10T22:01:17.501Z,1.70
2018-08-10T22:03:45.882Z,3.07
2018-08-10T22:06:14.198Z,3.00
2018-08-10T22:08:42.496Z,2.23
2018-08-10T22:11:10.924Z,3.07
2018-08-10T22:13:44.602Z,3.17
2018-08-10T22:16:18.181Z,1.67
2018-08-10T22:18:51.859Z,3.93
2018-08-10T22:21:20.257Z,2.55
2018-08-10T22:23:48.558Z,2.03
2018-08-10T22:26:16.855Z,3.73
2018-08-10T22:28:45.183Z,1.87
2018-08-10T22:31:13.505Z,6.30
2018-08-10T22:33:41.815Z,2.23
2018-08-10T22:36:10.086Z,3.77
2018-08-10T22:38:38.354Z,3.90
2018-08-10T22:41:06.748Z,3.87
2018-08-10T22:43:35.096Z,2.40
2018-08-10T22:46:03.905Z,3.00
2018-08-10T22:48:32.307Z,2.20
2018-08-10T22:51:00.741Z,3.67
2018-08-10T22:53:29.149Z,3.77
2018-08-10T22:55:57.536Z,3.70
2018-08-10T22:58:25.803Z,2.33
2018-08-10T23:00:54.146Z,1.80
2018-08-10T23:03:22.448Z,2.10
2018-08-10T23:05:50.766Z,2.00
2018-08-10T23:08:19.215Z,2.05
2018-08-10T23:10:47.486Z,3.47
2018-08-10T23:13:15.783Z,3.57
2018-08-10T23:15:44.125Z,3.40
2018-08-10T23:18:12.458Z,2.30
2018-08-10T23:20:40.786Z,3.73
2018-08-10T23:23:09.057Z,4.20
2018-08-10T23:25:37.355Z,4.80
2018-08-10T23:28:05.680Z,3.73
2018-08-10T23:30:34.200Z,4.80
2018-08-10T23:33:03.116Z,5.53
2018-08-10T23:35:31.392Z,3.57
2018-08-10T23:37:59.697Z,6.77
2018-08-10T23:40:28.008Z,5.80
2018-08-10T23:42:56.369Z,6.97
2018-08-10T23:45:24.746Z,7.28
2018-08-10T23:47:53.052Z,5.47
2018-08-10T23:50:21.440Z,5.00
2018-08-10T23:52:49.725Z,6.60
2018-08-10T23:55:19.847Z,4.33
2018-08-10T23:57:48.208Z,3.53
